Time;durP1;ratioP1;P1;durP2;ratioP2;P2;SDS_P1;SDS_P2;PMS_P1;PMS_P2;Temp;Humidity;BMP_temperature;BMP_pressure;BME280_temperature;BME280_humidity;BME280_pressure;Samples;Min_cycle;Max_cycle;Signal;HPM_P1;HPM_P2
2022/08/29 00:01:08;;;;;;;6.90;2.22;;;17.10;67.90;;;;;;5008266;28;20440;-74
2022/08/29 00:03:35;;;;;;;6.20;2.53;;;17.10;67.80;;;;;;5008540;28;20118;-75
2022/08/29 00:06:01;;;;;;;3.97;2.05;;;17.10;67.80;;;;;;5008295;28;20045;-75
2022/08/29 00:08:27;;;;;;;5.07;2.40;;;17.10;67.80;;;;;;5008493;28;20060;-75
2022/08/29 00:10:54;;;;;;;6.93;2.60;;;17.20;67.80;;;;;;5008141;28;20053;-74
2022/08/29 00:13:20;;;;;;;7.68;2.42;;;17.10;68.00;;;;;;4991762;28;20037;-72
2022/08/29 00:15:46;;;;;;;5.00;2.30;;;17.20;68.10;;;;;;5011371;28;20094;-74
2022/08/29 00:18:14;;;;;;;3.75;2.30;;;17.10;68.10;;;;;;5011378;28;20041;-74
2022/08/29 00:20:40;;;;;;;6.22;2.97;;;17.20;68.30;;;;;;5011313;28;20073;-75
2022/08/29 00:23:06;;;;;;;4.47;2.65;;;17.20;68.40;;;;;;5011614;28;20167;-74
2022/08/29 00:25:33;;;;;;;7.35;3.13;;;17.20;68.30;;;;;;5011343;28;20042;-75
2022/08/29 00:27:58;;;;;;;5.68;2.70;;;17.20;68.60;;;;;;5011330;28;20107;-74
2022/08/29 00:30:24;;;;;;;4.60;2.42;;;17.20;68.80;;;;;;4995040;28;20042;-76
2022/08/29 00:32:51;;;;;;;7.45;2.60;;;17.20;68.90;;;;;;5011534;28;20042;-75
2022/08/29 00:35:21;;;;;;;8.38;2.55;;;17.20;68.50;;;;;;5011035;28;20054;-76
2022/08/29 00:37:47;;;;;;;5.55;2.85;;;17.20;68.20;;;;;;5011120;28;20042;-74
2022/08/29 00:40:17;;;;;;;8.25;2.50;;;17.20;68.10;;;;;;5011136;28;20521;-77
2022/08/29 00:42:43;;;;;;;4.40;2.45;;;17.20;68.10;;;;;;5011124;28;20042;-74
2022/08/29 00:45:10;;;;;;;7.22;3.47;;;17.20;68.10;;;;;;5011318;28;20128;-74
2022/08/29 00:47:41;;;;;;;5.22;2.47;;;17.20;68.00;;;;;;5011264;28;20050;-73
2022/08/29 00:50:11;;;;;;;7.57;3.00;;;17.20;68.10;;;;;;5010955;28;20486;-74
2022/08/29 00:52:41;;;;;;;6.38;2.70;;;17.20;68.10;;;;;;5010860;28;20053;-75
2022/08/29 00:55:11;;;;;;;7.50;2.80;;;17.20;68.20;;;;;;5011178;28;20095;-76
2022/08/29 00:57:41;;;;;;;7.28;2.85;;;17.20;68.40;;;;;;5010780;28;20049;-75
2022/08/29 01:00:07;;;;;;;6.28;2.95;;;17.20;68.50;;;;;;5010881;28;20046;-76
2022/08/29 01:02:33;;;;;;;4.85;2.55;;;17.20;68.70;;;;;;5010626;28;20046;-75
2022/08/29 01:04:59;;;;;;;9.32;3.25;;;17.20;68.80;;;;;;5010769;28;20151;-74
2022/08/29 01:07:25;;;;;;;6.60;2.83;;;17.20;68.90;;;;;;5010703;28;20042;-75
2022/08/29 01:09:52;;;;;;;6.30;2.78;;;17.20;69.00;;;;;;5010635;28;20124;-75
2022/08/29 01:12:20;;;;;;;7.47;2.67;;;17.20;69.20;;;;;;4994681;28;20045;-73
2022/08/29 01:14:50;;;;;;;7.30;3.00;;;17.20;69.30;;;;;;5010851;28;20394;-73
2022/08/29 01:17:23;;;;;;;4.90;2.78;;;17.20;69.40;;;;;;5010513;28;20056;-75
2022/08/29 01:19:51;;;;;;;8.23;2.67;;;17.20;69.70;;;;;;5010837;28;20077;-75
2022/08/29 01:22:36;;;;;;;6.00;3.13;;;17.20;70.00;;;;;;4994574;28;20129;-75
2022/08/29 01:25:06;;;;;;;11.80;3.67;;;17.20;70.40;;;;;;5010342;28;20075;-74
2022/08/29 01:27:37;;;;;;;7.03;3.03;;;17.30;70.70;;;;;;5010071;28;20049;-73
2022/08/29 01:30:05;;;;;;;5.50;2.58;;;17.30;70.90;;;;;;5010491;28;20046;-75
2022/08/29 01:32:30;;;;;;;5.43;2.75;;;17.30;71.30;;;;;;5010476;28;20056;-74
2022/08/29 01:34:56;;;;;;;8.38;2.90;;;17.30;71.40;;;;;;4993931;28;20057;-76
2022/08/29 01:37:22;;;;;;;10.25;2.90;;;17.30;71.70;;;;;;5010177;28;20053;-74
2022/08/29 01:39:48;;;;;;;8.95;3.38;;;17.30;71.90;;;;;;4993871;28;20048;-74
2022/08/29 01:42:19;;;;;;;6.70;2.78;;;17.30;72.20;;;;;;4993965;28;20080;-75
2022/08/29 01:44:57;;;;;;;7.93;3.15;;;17.30;72.50;;;;;;5010209;28;20042;-74
2022/08/29 01:47:25;;;;;;;9.45;2.80;;;17.30;72.90;;;;;;5010223;28;20099;-74
2022/08/29 01:49:51;;;;;;;6.35;2.72;;;17.20;72.90;;;;;;5010232;28;20038;-75
2022/08/29 01:52:17;;;;;;;9.18;2.78;;;17.20;73.10;;;;;;5009998;28;20099;-74
2022/08/29 01:54:44;;;;;;;8.93;3.15;;;17.20;73.20;;;;;;5010241;28;20042;-73
2022/08/29 01:57:11;;;;;;;9.13;3.05;;;17.20;73.40;;;;;;4993945;28;20393;-76
2022/08/29 01:59:37;;;;;;;8.80;3.20;;;17.20;73.50;;;;;;5010165;28;20134;-73
2022/08/29 02:02:37;;;;;;;10.55;4.55;;;17.20;73.70;;;;;;5010094;28;20118;-77
2022/08/29 02:05:03;;;;;;;6.72;2.80;;;17.20;73.80;;;;;;5010374;28;20107;-75
2022/08/29 02:07:28;;;;;;;6.38;3.17;;;17.20;73.80;;;;;;5009792;28;20046;-74
2022/08/29 02:09:54;;;;;;;6.05;3.28;;;17.10;73.90;;;;;;5009727;28;20041;-76
2022/08/29 02:12:21;;;;;;;8.38;3.45;;;17.10;73.90;;;;;;5009932;28;20443;-74
2022/08/29 02:14:49;;;;;;;8.38;3.33;;;17.00;73.90;;;;;;4993361;28;20071;-75
2022/08/29 02:17:15;;;;;;;8.23;3.28;;;17.00;73.90;;;;;;5009945;28;20109;-75
2022/08/29 02:19:41;;;;;;;6.75;3.47;;;17.00;73.90;;;;;;5009786;28;20042;-75
2022/08/29 02:22:07;;;;;;;8.13;3.10;;;17.00;74.10;;;;;;5009603;28;20052;-74
2022/08/29 02:24:33;;;;;;;10.60;3.60;;;17.00;74.10;;;;;;5009594;28;20537;-76
2022/08/29 02:26:59;;;;;;;9.80;3.83;;;17.00;74.20;;;;;;5009504;28;20050;-74
2022/08/29 02:29:26;;;;;;;6.03;3.42;;;17.00;74.30;;;;;;5009458;28;20044;-74
2022/08/29 02:31:52;;;;;;;8.25;3.72;;;17.00;74.30;;;;;;5009232;28;20050;-75
2022/08/29 02:34:18;;;;;;;10.73;4.30;;;16.90;74.40;;;;;;5009273;28;20046;-75
2022/08/29 02:36:44;;;;;;;7.40;3.85;;;16.90;74.60;;;;;;5009291;28;20060;-75
2022/08/29 02:39:10;;;;;;;10.77;4.03;;;16.90;74.90;;;;;;5008407;28;20489;-74
2022/08/29 02:41:35;;;;;;;7.47;3.28;;;16.90;74.90;;;;;;5009240;28;20045;-76
2022/08/29 02:44:02;;;;;;;8.05;3.90;;;16.90;75.20;;;;;;5009221;28;20124;-73
2022/08/29 02:46:27;;;;;;;9.07;4.22;;;16.90;75.10;;;;;;5009310;28;20042;-73
2022/08/29 02:48:54;;;;;;;8.02;3.78;;;16.90;75.30;;;;;;5009426;28;20405;-74
2022/08/29 02:51:23;;;;;;;11.40;3.88;;;16.90;75.30;;;;;;4992889;28;20077;-76
2022/08/29 02:53:49;;;;;;;5.63;3.50;;;16.90;75.30;;;;;;5009365;28;20064;-74
2022/08/29 02:56:16;;;;;;;7.63;3.25;;;16.90;75.30;;;;;;5009385;28;20394;-74
2022/08/29 02:58:42;;;;;;;6.93;3.83;;;16.90;75.40;;;;;;4992656;28;20046;-76
2022/08/29 03:01:08;;;;;;;8.13;3.88;;;16.90;75.40;;;;;;5008984;28;20050;-75
2022/08/29 03:03:34;;;;;;;6.63;3.15;;;16.90;75.20;;;;;;5008895;28;20500;-75
2022/08/29 03:06:00;;;;;;;5.30;3.22;;;16.90;75.30;;;;;;5008987;28;20038;-75
2022/08/29 03:08:26;;;;;;;5.70;3.00;;;16.90;75.20;;;;;;5009204;28;20041;-75
2022/08/29 03:10:52;;;;;;;6.75;3.45;;;16.90;75.30;;;;;;5008900;28;20501;-75
2022/08/29 03:13:19;;;;;;;8.25;4.43;;;16.90;75.20;;;;;;5009147;28;20100;-74
2022/08/29 03:15:45;;;;;;;10.48;4.15;;;16.90;75.30;;;;;;4992907;28;20498;-74
2022/08/29 03:18:10;;;;;;;10.98;3.55;;;17.00;75.30;;;;;;5008683;28;20038;-72
2022/08/29 03:20:37;;;;;;;7.45;3.67;;;17.00;75.30;;;;;;5009008;28;20034;-74
2022/08/29 03:23:04;;;;;;;8.55;4.10;;;16.90;75.30;;;;;;5009041;28;20378;-74
2022/08/29 03:25:30;;;;;;;9.60;3.75;;;16.90;75.30;;;;;;5008745;28;20045;-76
2022/08/29 03:27:58;;;;;;;7.20;3.63;;;16.90;75.30;;;;;;5008729;28;20052;-76
2022/08/29 03:30:25;;;;;;;10.98;5.00;;;16.90;75.30;;;;;;5008576;28;20508;-73
2022/08/29 03:32:51;;;;;;;7.93;3.28;;;16.90;75.10;;;;;;5008669;28;20100;-75
2022/08/29 03:35:18;;;;;;;7.45;3.80;;;16.90;75.10;;;;;;5008473;28;20092;-75
2022/08/29 03:37:44;;;;;;;5.97;3.38;;;16.90;75.10;;;;;;5008553;28;20133;-74
2022/08/29 03:40:12;;;;;;;8.23;3.70;;;16.90;75.00;;;;;;5008532;28;20069;-73
2022/08/29 03:42:38;;;;;;;8.00;3.33;;;16.90;75.10;;;;;;5009685;28;20095;-76
2022/08/29 03:45:08;;;;;;;7.65;4.20;;;16.90;75.30;;;;;;5008470;28;20046;-75
2022/08/29 03:47:34;;;;;;;9.93;3.35;;;17.00;75.30;;;;;;5008735;28;20128;-74
2022/08/29 03:49:59;;;;;;;6.35;3.50;;;16.90;75.40;;;;;;5010727;28;20179;-75
2022/08/29 03:52:25;;;;;;;10.15;3.45;;;16.90;75.50;;;;;;5011971;28;20041;-75
2022/08/29 03:54:51;;;;;;;6.82;2.95;;;17.00;75.60;;;;;;5011828;28;20053;-75
2022/08/29 03:57:17;;;;;;;7.47;3.30;;;17.00;75.60;;;;;;4995359;28;20123;-73
2022/08/29 03:59:42;;;;;;;7.28;3.40;;;17.00;75.80;;;;;;4995341;28;20473;-74
2022/08/29 04:02:08;;;;;;;6.90;2.47;;;17.00;76.10;;;;;;5011939;28;20038;-73
2022/08/29 04:07:18;;;;;;;5.72;2.60;;;17.00;76.50;;;;;;5011689;28;20056;-75
2022/08/29 04:09:44;;;;;;;7.68;3.17;;;17.00;76.50;;;;;;4995376;28;20046;-75
2022/08/29 04:12:12;;;;;;;5.40;2.80;;;17.10;76.60;;;;;;5011706;28;20112;-74
2022/08/29 04:14:38;;;;;;;7.57;3.03;;;17.10;76.70;;;;;;5011509;28;20042;-74
2022/08/29 04:17:04;;;;;;;6.05;2.80;;;17.10;76.90;;;;;;5011488;28;20049;-74
2022/08/29 04:19:31;;;;;;;8.75;3.15;;;17.10;77.00;;;;;;5011711;28;20048;-75
2022/08/29 04:21:56;;;;;;;6.75;2.95;;;17.10;77.10;;;;;;5011325;28;20107;-75
2022/08/29 04:24:23;;;;;;;6.40;2.72;;;17.10;77.30;;;;;;5011684;28;20050;-76
2022/08/29 04:26:49;;;;;;;4.47;2.20;;;17.00;77.30;;;;;;5011244;28;20135;-73
2022/08/29 04:29:15;;;;;;;3.97;2.25;;;17.10;77.40;;;;;;4994974;28;20084;-75
2022/08/29 04:31:42;;;;;;;4.95;1.92;;;17.00;77.40;;;;;;5011457;28;20115;-75
2022/08/29 04:34:10;;;;;;;4.88;2.05;;;17.00;77.40;;;;;;5010842;28;20142;-75
2022/08/29 04:36:37;;;;;;;5.88;2.00;;;17.10;77.30;;;;;;5010870;28;20076;-74
2022/08/29 04:39:04;;;;;;;7.18;2.88;;;17.10;77.40;;;;;;5010692;28;20095;-73
2022/08/29 04:41:30;;;;;;;4.63;2.15;;;17.10;77.50;;;;;;4994344;28;20049;-75
2022/08/29 04:43:56;;;;;;;8.85;2.38;;;17.10;77.60;;;;;;5010774;28;20079;-74
2022/08/29 04:46:22;;;;;;;3.85;1.90;;;17.10;77.60;;;;;;4994411;28;20038;-73
2022/08/29 04:48:48;;;;;;;8.52;2.58;;;17.10;77.30;;;;;;5010885;28;20103;-73
2022/08/29 04:51:14;;;;;;;5.15;1.70;;;17.10;77.20;;;;;;4994871;28;20139;-75
2022/08/29 04:53:39;;;;;;;5.47;2.17;;;17.10;77.30;;;;;;4994609;28;20034;-75
2022/08/29 04:56:10;;;;;;;4.45;1.90;;;17.10;77.40;;;;;;4994863;28;20042;-75
2022/08/29 04:58:38;;;;;;;5.20;1.80;;;17.10;77.30;;;;;;4994637;28;20038;-74
2022/08/29 05:01:04;;;;;;;6.30;1.73;;;17.10;77.30;;;;;;5010008;28;20140;-75
2022/08/29 05:03:31;;;;;;;5.53;1.92;;;17.20;77.40;;;;;;5010850;28;20053;-76
2022/08/29 05:06:00;;;;;;;4.65;1.85;;;17.10;77.50;;;;;;5010751;28;20121;-75
2022/08/29 05:08:27;;;;;;;4.30;1.67;;;17.20;77.50;;;;;;5010942;28;20455;-75
2022/08/29 05:10:53;;;;;;;12.98;3.00;;;17.20;77.50;;;;;;4994523;28;20057;-77
2022/08/29 05:13:19;;;;;;;3.58;1.58;;;17.20;77.60;;;;;;5010709;28;20046;-75
2022/08/29 05:15:45;;;;;;;5.45;2.40;;;17.20;77.70;;;;;;5010704;28;20103;-74
2022/08/29 05:18:12;;;;;;;3.67;1.75;;;17.20;77.90;;;;;;5010662;28;20042;-76
2022/08/29 05:20:42;;;;;;;5.95;2.05;;;17.20;78.10;;;;;;5010716;28;20410;-75
2022/08/29 05:23:08;;;;;;;7.68;2.25;;;17.10;78.00;;;;;;5010750;28;20390;-75
2022/08/29 05:25:34;;;;;;;6.68;2.10;;;17.10;78.00;;;;;;5010470;28;20050;-74
2022/08/29 05:28:00;;;;;;;12.52;3.58;;;17.10;78.10;;;;;;4994161;28;20038;-76
2022/08/29 05:30:27;;;;;;;5.85;2.47;;;17.20;78.10;;;;;;5010607;28;20152;-75
2022/08/29 05:32:53;;;;;;;6.22;2.33;;;17.20;78.30;;;;;;5010326;28;20516;-74
2022/08/29 05:35:19;;;;;;;8.05;2.42;;;17.10;78.40;;;;;;5010120;28;20490;-75
2022/08/29 05:37:45;;;;;;;7.55;2.13;;;17.20;78.40;;;;;;5010127;28;20106;-76
2022/08/29 05:40:11;;;;;;;7.43;2.17;;;17.20;78.50;;;;;;5010201;28;20057;-75
2022/08/29 05:42:37;;;;;;;5.80;2.40;;;17.20;78.50;;;;;;5010118;28;20147;-76
2022/08/29 05:45:06;;;;;;;6.38;2.30;;;17.20;78.60;;;;;;5010232;28;20443;-76
2022/08/29 05:47:32;;;;;;;6.70;2.30;;;17.20;78.50;;;;;;5010075;28;20053;-75
2022/08/29 05:49:59;;;;;;;4.63;2.30;;;17.20;78.80;;;;;;4994148;28;20463;-77
2022/08/29 05:52:25;;;;;;;9.05;2.60;;;17.30;78.70;;;;;;5010178;28;20102;-75
2022/08/29 05:54:51;;;;;;;7.78;2.28;;;17.30;78.90;;;;;;5010054;28;20502;-77
2022/08/29 05:57:20;;;;;;;15.00;2.60;;;17.30;79.00;;;;;;5009912;28;20462;-75
2022/08/29 05:59:47;;;;;;;7.55;2.63;;;17.30;79.10;;;;;;5010362;28;20033;-75
2022/08/29 06:02:13;;;;;;;7.97;2.78;;;17.30;79.20;;;;;;4993802;28;20081;-76
2022/08/29 06:04:39;;;;;;;7.20;2.63;;;17.40;79.30;;;;;;5009720;28;20438;-73
2022/08/29 06:07:06;;;;;;;10.07;3.08;;;17.40;79.40;;;;;;5009787;28;20127;-75
2022/08/29 06:09:33;;;;;;;5.35;1.98;;;17.40;79.40;;;;;;5010068;28;20129;-75
2022/08/29 06:11:58;;;;;;;5.18;2.50;;;17.50;79.50;;;;;;5009761;28;20049;-75
2022/08/29 06:14:25;;;;;;;5.63;2.05;;;17.50;79.30;;;;;;5009948;28;20558;-75
2022/08/29 06:16:52;;;;;;;4.50;1.88;;;17.50;79.40;;;;;;5009911;28;20080;-73
2022/08/29 06:19:18;;;;;;;7.30;2.53;;;17.50;79.50;;;;;;5009257;28;20050;-79
2022/08/29 06:21:44;;;;;;;7.95;2.47;;;17.50;79.50;;;;;;4976995;28;20481;-76
2022/08/29 06:24:10;;;;;;;7.80;2.47;;;17.50;79.40;;;;;;5009580;28;20049;-77
2022/08/29 06:26:36;;;;;;;8.65;2.22;;;17.50;79.50;;;;;;5009761;28;20107;-77
2022/08/29 06:29:08;;;;;;;6.05;2.47;;;17.50;79.60;;;;;;5009414;28;20405;-79
2022/08/29 06:31:34;;;;;;;9.77;2.47;;;17.60;79.70;;;;;;5009607;28;20375;-77
2022/08/29 06:34:02;;;;;;;7.88;2.60;;;17.60;79.70;;;;;;4992958;28;20064;-78
2022/08/29 06:36:28;;;;;;;7.68;2.33;;;17.60;79.80;;;;;;5009569;28;20132;-76
2022/08/29 06:38:55;;;;;;;5.88;2.58;;;17.60;79.90;;;;;;5009223;28;20048;-76
2022/08/29 06:41:21;;;;;;;9.65;2.97;;;17.70;79.90;;;;;;5009225;28;20549;-78
2022/08/29 06:43:47;;;;;;;6.40;2.20;;;17.70;80.00;;;;;;5009558;28;20084;-76
2022/08/29 06:46:41;;;;;;;10.88;2.75;;;17.80;80.10;;;;;;5008606;28;20505;-75
2022/08/29 06:49:10;;;;;;;8.75;3.08;;;17.90;80.00;;;;;;5008114;28;20118;-76
2022/08/29 06:51:38;;;;;;;5.78;2.28;;;17.90;79.80;;;;;;5008684;28;20276;-75
2022/08/29 06:54:06;;;;;;;4.47;2.25;;;18.00;79.80;;;;;;5009136;28;20050;-75
2022/08/29 06:56:33;;;;;;;7.40;2.13;;;18.00;79.40;;;;;;5009109;28;20239;-75
2022/08/29 06:58:58;;;;;;;6.93;2.83;;;18.00;79.10;;;;;;5008971;28;20106;-79
2022/08/29 07:01:25;;;;;;;12.98;2.78;;;18.10;79.00;;;;;;5009225;28;20038;-77
2022/08/29 07:03:55;;;;;;;4.82;2.03;;;18.20;79.00;;;;;;5009114;28;20038;-76
2022/08/29 07:06:22;;;;;;;6.47;2.38;;;18.20;79.00;;;;;;5009031;28;20042;-76
2022/08/29 07:08:48;;;;;;;6.53;2.28;;;18.30;78.80;;;;;;5009082;28;20081;-75
2022/08/29 07:11:14;;;;;;;5.82;2.03;;;18.40;78.80;;;;;;5009152;28;20085;-76
2022/08/29 07:13:39;;;;;;;7.57;1.80;;;18.40;78.80;;;;;;5008806;28;20509;-76
2022/08/29 07:16:11;;;;;;;8.25;2.60;;;18.50;78.50;;;;;;5008535;28;20046;-76
2022/08/29 07:18:37;;;;;;;6.13;2.08;;;18.50;78.30;;;;;;5009087;28;20050;-76
2022/08/29 07:21:07;;;;;;;7.78;2.15;;;18.60;78.20;;;;;;5008772;28;20486;-75
2022/08/29 07:23:33;;;;;;;6.55;2.30;;;18.60;78.10;;;;;;5009228;28;20057;-77
2022/08/29 07:26:06;;;;;;;5.30;2.00;;;18.60;78.20;;;;;;5012492;28;20133;-77
2022/08/29 07:28:33;;;;;;;9.75;2.55;;;18.80;77.90;;;;;;5012270;28;20520;-78
2022/08/29 07:30:59;;;;;;;7.25;2.05;;;18.80;77.90;;;;;;5007788;28;20050;-75
2022/08/29 07:33:25;;;;;;;4.75;1.80;;;18.80;77.90;;;;;;5011172;28;20130;-75
2022/08/29 07:35:53;;;;;;;5.60;3.03;;;18.90;77.80;;;;;;5064072;28;20045;-76
2022/08/29 07:38:19;;;;;;;5.30;2.10;;;19.00;77.50;;;;;;4995985;28;20125;-76
2022/08/29 07:40:45;;;;;;;4.85;1.90;;;19.00;76.50;;;;;;5011917;28;20075;-76
2022/08/29 07:43:11;;;;;;;6.60;2.53;;;19.10;76.00;;;;;;4995714;28;20034;-77
2022/08/29 07:45:40;;;;;;;10.25;2.75;;;19.20;75.90;;;;;;5012070;28;20102;-76
2022/08/29 07:48:06;;;;;;;6.38;1.98;;;19.20;76.00;;;;;;4995862;28;20041;-76
2022/08/29 07:50:32;;;;;;;4.13;1.67;;;19.30;76.00;;;;;;5011849;28;20401;-76
2022/08/29 07:52:57;;;;;;;4.20;1.80;;;19.30;75.50;;;;;;5011870;28;20110;-75
2022/08/29 07:55:24;;;;;;;6.90;2.10;;;19.40;75.10;;;;;;4995738;28;20042;-77
2022/08/29 07:57:52;;;;;;;4.07;1.90;;;19.40;75.20;;;;;;5011695;28;20042;-75
2022/08/29 08:00:19;;;;;;;6.70;2.15;;;19.50;75.20;;;;;;5011992;28;20053;-76
2022/08/29 08:02:44;;;;;;;5.47;2.10;;;19.50;75.00;;;;;;5011722;28;20073;-77
2022/08/29 08:05:10;;;;;;;6.13;2.33;;;19.60;74.80;;;;;;5011698;28;20134;-76
2022/08/29 08:07:36;;;;;;;5.38;2.20;;;19.70;74.30;;;;;;4995811;28;20042;-76
2022/08/29 08:10:03;;;;;;;4.60;2.15;;;19.70;74.20;;;;;;4995412;28;20512;-77
2022/08/29 08:12:29;;;;;;;7.03;2.30;;;19.80;74.20;;;;;;4995178;28;20041;-76
2022/08/29 08:14:55;;;;;;;6.93;2.20;;;19.80;73.90;;;;;;5011592;28;20045;-76
2022/08/29 08:17:22;;;;;;;8.00;2.25;;;19.80;73.70;;;;;;4995252;28;20102;-76
2022/08/29 08:19:48;;;;;;;6.70;2.65;;;19.80;73.40;;;;;;4979422;28;20397;-75
2022/08/29 08:22:14;;;;;;;6.68;2.22;;;19.90;73.60;;;;;;5011605;28;20034;-76
2022/08/29 08:24:39;;;;;;;6.68;1.98;;;19.90;73.60;;;;;;5011374;28;20486;-76
2022/08/29 08:27:05;;;;;;;6.57;2.10;;;20.00;73.40;;;;;;4995098;28;20033;-75
2022/08/29 08:29:31;;;;;;;8.55;2.10;;;20.20;72.70;;;;;;5011317;28;20073;-75
2022/08/29 08:31:58;;;;;;;8.10;2.40;;;20.50;72.10;;;;;;5011506;28;20050;-76
2022/08/29 08:34:25;;;;;;;6.78;2.20;;;20.50;71.20;;;;;;4994833;28;20083;-75
2022/08/29 08:36:51;;;;;;;7.40;2.20;;;20.50;70.80;;;;;;5011204;28;20050;-75
2022/08/29 08:39:17;;;;;;;4.57;1.83;;;20.50;70.80;;;;;;5011058;28;20117;-74
2022/08/29 08:42:06;;;;;;;17.13;2.35;;;20.50;70.70;;;;;;5011279;28;20276;-76
2022/08/29 08:45:10;;;;;;;5.22;2.03;;;20.60;70.30;;;;;;5011253;28;20038;-76
2022/08/29 08:47:48;;;;;;;6.50;2.60;;;20.60;70.20;;;;;;5011595;28;20050;-75
2022/08/29 08:50:40;;;;;;;7.90;2.20;;;20.70;69.90;;;;;;5010905;28;20053;-76
2022/08/29 08:53:14;;;;;;;5.45;2.10;;;20.80;69.30;;;;;;5011093;28;20106;-76
2022/08/29 08:55:46;;;;;;;5.85;2.10;;;21.00;68.40;;;;;;5010958;28;20045;-76
2022/08/29 08:58:24;;;;;;;7.47;2.08;;;21.10;67.90;;;;;;5010870;28;20042;-75
2022/08/29 09:01:02;;;;;;;7.53;2.40;;;21.20;68.20;;;;;;5011285;28;20439;-75
2022/08/29 09:03:47;;;;;;;6.22;2.40;;;21.30;68.30;;;;;;5010933;28;20046;-75
2022/08/29 09:06:26;;;;;;;6.97;2.05;;;21.40;68.00;;;;;;5010964;28;20101;-75
2022/08/29 09:09:21;;;;;;;8.13;2.42;;;21.30;67.80;;;;;;5010744;28;20038;-75
2022/08/29 09:11:55;;;;;;;6.10;1.90;;;21.30;67.80;;;;;;5013177;28;20050;-75
2022/08/29 09:14:24;;;;;;;;;;;21.40;67.80;;;;;;5010917;28;20071;-76
2022/08/29 09:16:54;;;;;;;6.18;2.63;;;21.40;67.70;;;;;;4993932;28;20169;-76
2022/08/29 09:19:19;;;;;;;5.75;2.00;;;21.40;67.40;;;;;;5011647;28;20121;-76
2022/08/29 09:22:14;;;;;;;3.83;1.90;;;21.40;67.50;;;;;;5011818;28;20469;-76
2022/08/29 09:24:48;;;;;;;7.32;2.10;;;21.50;67.50;;;;;;5015362;28;20107;-76
2022/08/29 09:27:25;;;;;;;7.55;2.10;;;21.40;67.70;;;;;;5010193;28;20568;-76
2022/08/29 09:30:19;;;;;;;5.82;2.20;;;21.40;67.50;;;;;;5010447;28;20064;-76
2022/08/29 09:33:00;;;;;;;9.07;2.90;;;21.40;67.80;;;;;;5010637;28;20448;-75
2022/08/29 09:35:48;;;;;;;6.25;2.58;;;21.50;68.50;;;;;;5010062;28;20050;-75
2022/08/29 09:38:22;;;;;;;8.68;2.72;;;21.60;68.30;;;;;;5009738;28;20103;-76
2022/08/29 09:40:48;;;;;;;;;;;21.60;68.50;;;;;;5008704;28;20046;-76
2022/08/29 09:43:25;;;;;;;8.13;3.05;;;21.70;68.80;;;;;;5010230;28;19982;-76
2022/08/29 09:46:22;;;;;;;8.07;2.95;;;21.70;69.00;;;;;;5010105;28;20489;-76
2022/08/29 09:49:11;;;;;;;9.82;3.00;;;21.70;69.10;;;;;;5009839;28;20042;-74
2022/08/29 09:51:48;;;;;;;5.88;2.47;;;21.70;69.80;;;;;;5009806;28;20049;-75
2022/08/29 09:54:25;;;;;;;9.00;3.25;;;21.60;69.30;;;;;;5010137;28;20363;-75
2022/08/29 09:56:55;;;;;;;4.43;2.50;;;21.50;69.60;;;;;;5008633;28;20367;-74
2022/08/29 09:59:36;;;;;;;4.93;2.33;;;21.40;69.90;;;;;;5008331;28;20508;-76
2022/08/29 10:02:21;;;;;;;8.35;3.17;;;21.40;70.30;;;;;;5009129;28;20542;-75
2022/08/29 10:04:52;;;;;;;9.82;2.90;;;21.30;69.80;;;;;;5009020;28;20114;-76
2022/08/29 10:07:19;;;;;;;7.75;2.78;;;21.20;70.60;;;;;;5009646;28;20041;-77
2022/08/29 10:10:24;;;;;;;6.18;2.60;;;21.00;71.00;;;;;;5009450;28;20045;-77
2022/08/29 10:13:05;;;;;;;6.35;2.83;;;21.00;70.80;;;;;;5009817;28;20048;-76
2022/08/29 10:15:41;;;;;;;6.40;2.47;;;21.20;69.80;;;;;;5010053;28;20034;-76
2022/08/29 10:18:42;;;;;;;4.97;2.45;;;21.40;69.50;;;;;;5009740;28;20046;-76
2022/08/29 10:21:35;;;;;;;6.85;3.05;;;21.60;69.70;;;;;;5009967;28;20440;-77
2022/08/29 10:24:25;;;;;;;7.68;2.78;;;21.70;70.60;;;;;;5010198;28;20041;-77
2022/08/29 10:27:28;;;;;;;8.40;3.20;;;21.70;71.10;;;;;;5009842;28;20184;-76
2022/08/29 10:29:59;;;;;;;11.77;4.05;;;21.80;71.00;;;;;;5009570;28;20129;-76
2022/08/29 10:32:40;;;;;;;6.45;2.85;;;21.70;71.30;;;;;;5009215;28;20042;-76
2022/08/29 10:35:30;;;;;;;7.97;3.50;;;21.70;71.20;;;;;;5009311;28;20140;-77
2022/08/29 10:38:03;;;;;;;8.07;3.83;;;21.70;71.10;;;;;;5009571;28;20085;-76
2022/08/29 10:40:41;;;;;;;8.90;3.40;;;21.70;71.10;;;;;;5009348;28;20099;-76
2022/08/29 10:43:28;;;;;;;9.73;3.42;;;21.70;71.10;;;;;;5009293;28;20041;-77
2022/08/29 10:46:39;;;;;;;9.40;3.67;;;21.70;71.60;;;;;;5009147;28;20095;-77
2022/08/29 10:49:15;;;;;;;8.98;3.38;;;21.80;71.50;;;;;;5005524;28;20061;-76
2022/08/29 10:51:57;;;;;;;8.43;3.35;;;21.90;71.90;;;;;;5009161;28;20042;-76
2022/08/29 10:54:42;;;;;;;8.65;3.40;;;22.00;71.90;;;;;;5009160;28;20045;-77
2022/08/29 10:57:11;;;;;;;10.48;3.40;;;22.30;71.10;;;;;;5009079;28;20134;-77
2022/08/29 10:59:45;;;;;;;13.02;3.80;;;22.50;70.40;;;;;;5006652;28;20081;-77
2022/08/29 11:02:14;;;;;;;7.97;3.40;;;22.70;70.00;;;;;;5009026;28;20038;-77
2022/08/29 11:04:46;;;;;;;6.00;2.90;;;22.90;69.50;;;;;;4992668;28;20042;-76
2022/08/29 11:07:15;;;;;;;8.13;2.90;;;23.00;68.70;;;;;;5009730;28;20061;-77
2022/08/29 11:09:56;;;;;;;11.27;3.55;;;23.10;67.80;;;;;;5009117;28;20563;-77
2022/08/29 11:12:50;;;;;;;9.48;3.30;;;23.20;66.80;;;;;;5009260;28;20041;-78
2022/08/29 11:15:30;;;;;;;;;;;23.20;67.00;;;;;;5009496;28;20049;-77
2022/08/29 11:18:20;;;;;;;8.95;3.30;;;23.20;67.00;;;;;;4992997;28;19921;-77
2022/08/29 11:20:52;;;;;;;7.63;2.85;;;23.10;67.00;;;;;;4969160;28;20088;-76
2022/08/29 11:23:27;;;;;;;11.93;4.10;;;22.90;67.00;;;;;;5008863;28;20042;-77
2022/08/29 11:25:53;;;;;;;11.13;3.65;;;22.80;67.30;;;;;;5007789;28;20044;-76
2022/08/29 11:28:27;;;;;;;8.30;3.47;;;22.70;67.60;;;;;;5008568;28;20494;-78
2022/08/29 11:30:52;;;;;;;8.65;3.58;;;22.50;69.10;;;;;;4992287;28;20038;-75
2022/08/29 11:34:02;;;;;;;17.33;4.57;;;22.40;70.00;;;;;;5008018;28;20066;-76
2022/08/29 11:36:53;;;;;;;7.93;3.78;;;22.20;71.10;;;;;;5022016;28;20054;-76
2022/08/29 11:39:28;;;;;;;6.90;3.30;;;22.00;70.90;;;;;;5008683;28;20465;-76
2022/08/29 11:41:57;;;;;;;9.15;3.35;;;21.90;71.10;;;;;;5008590;28;20038;-76
2022/08/29 11:44:36;;;;;;;12.57;3.92;;;21.80;71.10;;;;;;4992570;28;20059;-77
2022/08/29 11:47:33;;;;;;;8.02;3.10;;;21.60;71.30;;;;;;5008576;28;20055;-76
2022/08/29 11:50:26;;;;;;;10.48;4.13;;;21.60;71.30;;;;;;5008602;28;20053;-77
2022/08/29 11:52:57;;;;;;;6.60;3.20;;;21.50;71.70;;;;;;4992059;28;20125;-76
2022/08/29 11:55:42;;;;;;;12.85;3.80;;;21.60;71.40;;;;;;5008513;28;20053;-77
2022/08/29 11:58:13;;;;;;;13.13;3.35;;;21.50;71.40;;;;;;5008429;28;20080;-77
2022/08/29 12:00:47;;;;;;;12.43;3.92;;;21.50;71.50;;;;;;4992309;28;20049;-76
2022/08/29 12:03:31;;;;;;;7.53;3.28;;;21.60;71.50;;;;;;4992504;28;20042;-76
2022/08/29 12:06:11;;;;;;;7.88;2.88;;;21.70;70.90;;;;;;4992341;28;20424;-76
2022/08/29 12:09:01;;;;;;;10.38;3.75;;;21.70;71.10;;;;;;5008566;28;20046;-76
2022/08/29 12:11:57;;;;;;;8.55;3.40;;;21.80;71.40;;;;;;5022439;28;20046;-76
2022/08/29 12:14:37;;;;;;;9.38;3.40;;;21.80;71.10;;;;;;5011879;28;20077;-76
2022/08/29 12:17:06;;;;;;;10.75;3.25;;;21.90;71.10;;;;;;5011689;28;20053;-76
2022/08/29 12:20:13;;;;;;;10.82;3.83;;;22.00;71.00;;;;;;5011438;28;20049;-76
2022/08/29 12:22:59;;;;;;;13.82;3.55;;;22.00;70.70;;;;;;5011724;28;20085;-77
2022/08/29 12:25:46;;;;;;;8.38;3.60;;;22.00;71.10;;;;;;5011487;28;20086;-76
2022/08/29 12:28:25;;;;;;;13.75;4.78;;;22.00;70.50;;;;;;5011338;28;20049;-76
2022/08/29 12:30:57;;;;;;;11.80;4.03;;;22.00;70.20;;;;;;5011289;28;20081;-76
2022/08/29 12:33:31;;;;;;;9.23;3.78;;;21.90;70.60;;;;;;5011409;28;20050;-76
2022/08/29 12:35:57;;;;;;;;;;;21.90;70.30;;;;;;5011735;28;20133;-76
2022/08/29 12:38:49;;;;;;;9.63;3.90;;;21.90;70.40;;;;;;5011645;28;19921;-77
2022/08/29 12:41:41;;;;;;;10.68;3.80;;;21.90;70.30;;;;;;5011256;28;20046;-76
2022/08/29 12:44:12;;;;;;;11.25;4.18;;;22.00;70.50;;;;;;4995307;28;20038;-76
2022/08/29 12:46:41;;;;;;;12.63;4.75;;;22.00;70.60;;;;;;5011462;28;20056;-75
2022/08/29 12:49:36;;;;;;;9.15;3.40;;;21.90;70.60;;;;;;5011136;28;20042;-76
2022/08/29 12:52:19;;;;;;;9.57;3.33;;;22.00;70.10;;;;;;5011005;28;20102;-76
2022/08/29 12:54:45;;;;;;;11.57;4.53;;;21.90;70.20;;;;;;5011104;28;20046;-77
2022/08/29 12:57:27;;;;;;;7.88;3.20;;;22.00;70.50;;;;;;5011374;28;20052;-77
2022/08/29 12:59:55;;;;;;;11.57;3.67;;;22.00;70.60;;;;;;5011418;28;20052;-77
2022/08/29 13:02:31;;;;;;;9.68;3.58;;;22.00;70.30;;;;;;5010932;28;20042;-77
2022/08/29 13:04:57;;;;;;;13.63;4.03;;;22.10;70.60;;;;;;4995268;28;20359;-76
2022/08/29 13:07:24;;;;;;;9.75;3.40;;;22.20;70.60;;;;;;5010952;28;20073;-76
2022/08/29 13:09:56;;;;;;;9.95;4.00;;;22.30;70.10;;;;;;5011107;28;20037;-76